Time;durP1;ratioP1;P1;durP2;ratioP2;P2;SDS_P1;SDS_P2;PMS_P1;PMS_P2;Temp;Humidity;BMP_temperature;BMP_pressure;BME280_temperature;BME280_humidity;BME280_pressure;Samples;Min_cycle;Max_cycle;Signal;HPM_P1;HPM_P2
2023/04/15 00:01:59;;;;;;;11.77;5.55;;;;;;;7.47;100.00;100714.25;5072405;28;20068;-54
2023/04/15 00:04:28;;;;;;;13.30;5.60;;;;;;;7.45;100.00;100709.09;5075584;28;20045;-54
2023/04/15 00:06:56;;;;;;;13.00;5.88;;;;;;;7.37;100.00;100713.91;5075557;28;20040;-54
2023/04/15 00:09:24;;;;;;;12.20;6.10;;;;;;;7.35;100.00;100707.91;5071390;28;20102;-55
2023/04/15 00:11:53;;;;;;;10.25;5.68;;;;;;;7.28;100.00;100707.41;5070023;28;20055;-54
2023/04/15 00:14:21;;;;;;;9.60;5.47;;;;;;;7.25;100.00;100713.66;5074250;28;20079;-52
2023/04/15 00:16:54;;;;;;;9.80;5.93;;;;;;;7.24;100.00;100711.09;5071467;28;20064;-55
2023/04/15 00:19:24;;;;;;;10.00;5.50;;;;;;;7.21;100.00;100706.88;5072714;28;20101;-56
2023/04/15 00:21:52;;;;;;;11.43;5.93;;;;;;;7.14;100.00;100709.91;5075015;28;20094;-56
2023/04/15 00:24:20;;;;;;;14.15;6.47;;;;;;;7.10;100.00;100719.66;5071695;28;20056;-53
2023/04/15 00:26:48;;;;;;;11.93;6.13;;;;;;;7.03;100.00;100711.28;5070880;28;20037;-56
2023/04/15 00:29:18;;;;;;;11.20;5.88;;;;;;;6.97;100.00;100718.59;5070932;28;20051;-54
2023/04/15 00:31:46;;;;;;;12.13;5.90;;;;;;;6.94;100.00;100722.25;5073059;28;20053;-55
2023/04/15 00:34:15;;;;;;;10.93;6.13;;;;;;;6.88;100.00;100715.56;5070837;28;20051;-55
2023/04/15 00:36:43;;;;;;;11.98;6.00;;;;;;;6.86;100.00;100712.19;5069107;28;20575;-56
2023/04/15 00:39:11;;;;;;;8.63;5.43;;;;;;;6.86;100.00;100722.66;5071633;28;20109;-52
2023/04/15 00:41:39;;;;;;;11.40;5.85;;;;;;;6.82;100.00;100718.50;5073351;28;20045;-54
2023/04/15 00:44:08;;;;;;;11.00;5.78;;;;;;;6.79;100.00;100717.81;5072280;28;20079;-53
2023/04/15 00:46:39;;;;;;;10.35;5.82;;;;;;;6.76;100.00;100710.94;5071346;28;20048;-55
2023/04/15 00:49:07;;;;;;;11.05;6.00;;;;;;;6.72;100.00;100717.25;5068392;28;20044;-55
2023/04/15 00:51:36;;;;;;;12.82;6.00;;;;;;;6.70;100.00;100716.50;5068941;28;20037;-55
2023/04/15 00:54:04;;;;;;;10.75;6.20;;;;;;;6.67;100.00;100714.91;5068200;28;20722;-56
2023/04/15 00:56:36;;;;;;;10.13;5.85;;;;;;;6.64;100.00;100711.59;5069760;28;20178;-54
2023/04/15 00:59:06;;;;;;;11.43;6.15;;;;;;;6.63;100.00;100721.19;5072216;28;20223;-56
2023/04/15 01:01:35;;;;;;;11.38;6.10;;;;;;;6.66;100.00;100715.81;5073203;28;20049;-55
2023/04/15 01:04:05;;;;;;;13.27;6.38;;;;;;;6.66;100.00;100717.59;5074208;28;20048;-54
2023/04/15 01:06:33;;;;;;;11.00;6.45;;;;;;;6.59;100.00;100723.13;5074271;28;20181;-55
2023/04/15 01:09:02;;;;;;;11.82;6.05;;;;;;;6.57;100.00;100721.50;5071970;28;20045;-55
2023/04/15 01:11:33;;;;;;;10.55;6.53;;;;;;;6.54;100.00;100714.66;5070420;28;20056;-54
2023/04/15 01:14:01;;;;;;;13.20;6.60;;;;;;;6.51;100.00;100721.81;5072561;28;20052;-54
2023/04/15 01:16:29;;;;;;;12.13;6.47;;;;;;;6.50;100.00;100727.97;5070272;28;20060;-56
2023/04/15 01:18:58;;;;;;;10.30;6.05;;;;;;;6.47;100.00;100731.56;5069699;28;20036;-52
2023/04/15 01:21:28;;;;;;;13.20;6.45;;;;;;;6.46;100.00;100729.03;5069494;28;20130;-54
2023/04/15 01:23:57;;;;;;;10.05;6.10;;;;;;;6.43;100.00;100730.03;5068150;28;20041;-55
2023/04/15 01:26:27;;;;;;;12.73;6.72;;;;;;;6.43;100.00;100730.03;5070485;28;20041;-53
2023/04/15 01:28:55;;;;;;;12.50;6.50;;;;;;;6.42;100.00;100729.19;5070429;28;20044;-55
2023/04/15 01:31:23;;;;;;;10.98;6.18;;;;;;;6.41;100.00;100731.88;5067686;28;20044;-53
2023/04/15 01:33:52;;;;;;;10.75;6.20;;;;;;;6.36;100.00;100726.03;5068869;28;20040;-54
2023/04/15 01:36:20;;;;;;;12.30;6.35;;;;;;;6.35;100.00;100727.78;5066649;28;20482;-54
2023/04/15 01:38:48;;;;;;;11.25;6.07;;;;;;;6.34;100.00;100728.72;5067130;28;20581;-55
2023/04/15 01:41:18;;;;;;;13.32;6.22;;;;;;;6.33;100.00;100723.59;5066806;28;20517;-55
2023/04/15 01:43:48;;;;;;;11.25;6.43;;;;;;;6.28;100.00;100730.78;5070814;28;20076;-53
2023/04/15 01:46:16;;;;;;;13.48;5.97;;;;;;;6.29;100.00;100724.66;5071313;28;20064;-56
2023/04/15 01:48:47;;;;;;;10.50;5.70;;;;;;;6.27;100.00;100729.94;5069445;28;20055;-52
2023/04/15 01:51:15;;;;;;;11.88;6.13;;;;;;;6.25;100.00;100726.56;5067554;28;20052;-56
2023/04/15 01:53:43;;;;;;;10.77;5.88;;;;;;;6.21;100.00;100731.06;5067382;28;20045;-55
2023/04/15 01:56:11;;;;;;;10.85;6.25;;;;;;;6.21;100.00;100722.41;5067921;28;20086;-55
2023/04/15 01:58:40;;;;;;;10.07;5.82;;;;;;;6.21;100.00;100730.25;5067861;28;20389;-53
2023/04/15 02:01:10;;;;;;;9.90;5.63;;;;;;;6.19;100.00;100732.06;5068133;28;20044;-54
2023/04/15 02:03:38;;;;;;;10.63;5.80;;;;;;;6.17;100.00;100726.94;5068515;28;20504;-56
2023/04/15 02:06:07;;;;;;;12.02;6.68;;;;;;;6.16;100.00;100727.88;5069790;28;20206;-55
2023/04/15 02:08:35;;;;;;;11.18;5.90;;;;;;;6.14;100.00;100729.69;5070668;28;20074;-52
2023/04/15 02:11:03;;;;;;;11.77;6.72;;;;;;;6.12;100.00;100730.69;5068366;28;20098;-52
2023/04/15 02:13:31;;;;;;;10.63;5.72;;;;;;;6.12;100.00;100735.91;5067613;28;20152;-52
2023/04/15 02:15:59;;;;;;;10.10;5.70;;;;;;;6.08;100.00;100728.22;5071668;28;20453;-53
2023/04/15 02:18:28;;;;;;;12.45;6.03;;;;;;;6.06;100.00;100731.84;5071931;28;20036;-54
2023/04/15 02:20:57;;;;;;;9.57;5.50;;;;;;;6.11;100.00;100739.44;5070962;28;20098;-53
2023/04/15 02:23:25;;;;;;;9.65;5.63;;;;;;;6.11;100.00;100732.47;5067615;28;20052;-53
2023/04/15 02:25:54;;;;;;;14.20;5.97;;;;;;;6.09;100.00;100734.28;5068911;28;20040;-55
2023/04/15 02:28:22;;;;;;;12.23;6.07;;;;;;;6.04;100.00;100741.50;5067821;28;20504;-54
2023/04/15 02:30:52;;;;;;;11.60;6.07;;;;;;;6.02;100.00;100743.34;5068759;28;20049;-54
2023/04/15 02:33:21;;;;;;;11.57;5.85;;;;;;;6.00;100.00;100742.56;5066693;28;20068;-55
2023/04/15 02:35:52;;;;;;;10.63;6.05;;;;;;;5.99;100.00;100741.72;5067144;28;20106;-55
2023/04/15 02:38:20;;;;;;;11.77;6.00;;;;;;;5.99;100.00;100751.31;5071409;28;20044;-55
2023/04/15 02:40:49;;;;;;;8.93;5.82;;;;;;;5.99;100.00;100751.31;5069431;28;20049;-54
2023/04/15 02:43:17;;;;;;;10.82;5.97;;;;;;;5.95;100.00;100755.81;5070267;28;20040;-54
2023/04/15 02:45:47;;;;;;;9.82;5.88;;;;;;;5.98;100.00;100754.84;5068244;28;20044;-51
2023/04/15 02:48:17;;;;;;;11.05;6.63;;;;;;;6.01;100.00;100760.78;5069431;28;20447;-54
2023/04/15 02:50:46;;;;;;;10.35;6.07;;;;;;;5.95;100.00;100760.19;5070509;28;20110;-55
2023/04/15 02:53:19;;;;;;;12.02;6.63;;;;;;;5.95;100.00;100760.19;5066471;28;20042;-55
2023/04/15 02:55:47;;;;;;;12.02;6.53;;;;;;;5.98;100.00;100767.91;5068916;28;20044;-54
2023/04/15 02:58:15;;;;;;;10.95;6.50;;;;;;;5.94;100.00;100767.16;5069604;28;20081;-53
2023/04/15 03:00:46;;;;;;;10.18;6.00;;;;;;;5.91;100.00;100759.47;5070412;28;20037;-54
2023/04/15 03:03:15;;;;;;;10.55;6.25;;;;;;;6.00;100.00;100763.44;5071131;28;20055;-54
2023/04/15 03:05:44;;;;;;;11.10;6.22;;;;;;;5.92;100.00;100762.00;5068497;28;20106;-54
2023/04/15 03:08:13;;;;;;;10.70;6.57;;;;;;;5.88;100.00;100764.84;5070131;28;20048;-54
2023/04/15 03:10:43;;;;;;;10.90;6.28;;;;;;;5.87;100.00;100760.53;5069888;28;20048;-52
2023/04/15 03:13:11;;;;;;;12.38;6.53;;;;;;;5.85;100.00;100770.19;5067841;28;20059;-52
2023/04/15 03:15:39;;;;;;;10.82;6.35;;;;;;;5.83;100.00;100767.66;5067728;28;20426;-52
2023/04/15 03:18:07;;;;;;;11.13;6.50;;;;;;;5.85;100.00;100771.06;5067155;28;20072;-54
2023/04/15 03:20:36;;;;;;;9.80;6.18;;;;;;;5.88;100.00;100765.69;5066994;28;20058;-55
2023/04/15 03:23:04;;;;;;;10.77;6.93;;;;;;;5.86;100.00;100766.66;5068374;28;20135;-54
2023/04/15 03:25:32;;;;;;;11.93;7.03;;;;;;;5.84;100.00;100768.53;5069867;28;20044;-54
2023/04/15 03:28:01;;;;;;;12.32;7.25;;;;;;;5.82;100.00;100771.22;5073785;28;20040;-53
2023/04/15 03:30:29;;;;;;;12.23;6.95;;;;;;;5.83;100.00;100775.50;5073910;28;20045;-53
2023/04/15 03:32:58;;;;;;;13.55;7.30;;;;;;;5.83;100.00;100778.09;5071065;28;20044;-52
2023/04/15 03:35:26;;;;;;;12.02;7.05;;;;;;;5.85;100.00;100781.50;5070640;28;20502;-53
2023/04/15 03:37:54;;;;;;;13.00;7.20;;;;;;;5.80;100.00;100778.25;5068870;28;20102;-54
2023/04/15 03:40:22;;;;;;;11.45;6.82;;;;;;;5.81;100.00;100779.94;5069648;28;20404;-54
2023/04/15 03:42:50;;;;;;;10.07;6.70;;;;;;;5.81;100.00;100785.16;5069768;28;20553;-54
2023/04/15 03:45:22;;;;;;;11.27;6.65;;;;;;;5.79;100.00;100787.00;5071195;28;20148;-54
2023/04/15 03:47:50;;;;;;;14.15;7.75;;;;;;;5.85;100.00;100785.84;5072075;28;20044;-54
2023/04/15 03:50:20;;;;;;;12.45;7.50;;;;;;;5.82;100.00;100786.88;5070138;28;20044;-52
2023/04/15 03:52:48;;;;;;;13.00;7.30;;;;;;;5.80;100.00;100801.75;5072588;28;20047;-51
2023/04/15 03:55:18;;;;;;;12.98;7.43;;;;;;;5.75;100.00;100788.91;5074258;28;20067;-52
2023/04/15 03:57:46;;;;;;;13.40;7.38;;;;;;;5.74;100.00;100797.66;5075113;28;20041;-52
2023/04/15 04:00:15;;;;;;;13.55;7.57;;;;;;;5.77;100.00;100791.44;5071850;28;20055;-53
2023/04/15 04:02:45;;;;;;;12.68;7.20;;;;;;;5.69;100.00;100804.84;5073859;28;20075;-49
2023/04/15 04:05:13;;;;;;;14.52;7.70;;;;;;;5.65;100.00;100807.66;5075432;28;20059;-53
2023/04/15 04:07:41;;;;;;;12.70;7.05;;;;;;;5.63;100.00;100796.44;5082492;28;20048;-54
2023/04/15 04:10:10;;;;;;;12.52;8.00;;;;;;;5.62;100.00;100800.81;5091657;28;20394;-53
2023/04/15 04:12:40;;;;;;;14.07;8.50;;;;;;;5.61;100.00;100806.09;5089150;28;20040;-54
2023/04/15 04:15:11;;;;;;;11.50;7.63;;;;;;;5.59;100.00;100809.63;5075247;28;20048;-55
2023/04/15 04:17:39;;;;;;;15.20;8.00;;;;;;;5.57;100.00;100823.66;5075322;28;20052;-54
2023/04/15 04:20:10;;;;;;;13.45;8.13;;;;;;;5.57;100.00;100819.28;5071573;28;20037;-53
2023/04/15 04:22:40;;;;;;;14.57;8.23;;;;;;;5.54;100.00;100819.41;5071819;28;20055;-55
2023/04/15 04:25:10;;;;;;;14.90;8.38;;;;;;;5.53;100.00;100822.09;5071800;28;20052;-53
2023/04/15 04:27:38;;;;;;;15.05;7.50;;;;;;;5.54;100.00;100829.00;5072373;28;20066;-55
2023/04/15 04:30:07;;;;;;;13.75;7.70;;;;;;;5.56;100.00;100835.00;5069693;28;20049;-50
2023/04/15 04:32:35;;;;;;;12.38;7.65;;;;;;;5.47;100.00;100833.66;5070429;28;20052;-53
2023/04/15 04:35:04;;;;;;;13.65;7.95;;;;;;;5.44;100.00;100839.00;5069547;28;20124;-53
2023/04/15 04:37:34;;;;;;;13.75;8.55;;;;;;;5.41;100.00;100837.38;5070089;28;20071;-54
2023/04/15 04:40:02;;;;;;;12.85;7.85;;;;;;;5.39;100.00;100840.97;5068430;28;20079;-54
2023/04/15 04:42:30;;;;;;;15.43;8.38;;;;;;;5.34;100.00;100848.97;5070052;28;20037;-53
2023/04/15 04:44:58;;;;;;;14.15;8.85;;;;;;;5.29;100.00;100856.16;5069825;28;20044;-54
2023/04/15 04:47:26;;;;;;;15.10;8.80;;;;;;;5.28;100.00;100859.69;5067720;28;20060;-54
2023/04/15 04:49:55;;;;;;;14.02;8.20;;;;;;;5.28;100.00;100867.50;5069018;28;20040;-54
2023/04/15 04:52:23;;;;;;;13.75;8.68;;;;;;;5.25;100.00;100865.88;5072366;28;20044;-52
2023/04/15 04:54:52;;;;;;;12.52;7.93;;;;;;;5.29;100.00;100876.16;5072837;28;20127;-53
2023/04/15 04:57:20;;;;;;;14.65;8.50;;;;;;;5.25;100.00;100873.69;5068723;28;20131;-54
2023/04/15 04:59:48;;;;;;;16.60;8.70;;;;;;;5.25;100.00;100878.91;5069117;28;20399;-54
2023/04/15 05:02:19;;;;;;;14.93;8.65;;;;;;;5.24;100.00;100879.81;5068730;28;20056;-54
2023/04/15 05:04:48;;;;;;;14.23;9.38;;;;;;;5.21;100.00;100884.34;5072299;28;20051;-53
2023/04/15 05:07:17;;;;;;;16.17;8.93;;;;;;;5.21;100.00;100882.56;5074033;28;20066;-54
2023/04/15 05:09:45;;;;;;;14.95;8.65;;;;;;;5.25;100.00;100889.34;5072931;28;20115;-53
2023/04/15 05:12:14;;;;;;;16.60;8.75;;;;;;;5.19;100.00;100886.16;5074356;28;20090;-54
2023/04/15 05:14:42;;;;;;;17.35;9.20;;;;;;;5.24;100.00;100895.47;5074166;28;20052;-51
2023/04/15 05:17:11;;;;;;;14.38;9.13;;;;;;;5.24;100.00;100900.69;5074019;28;20491;-53
2023/04/15 05:19:39;;;;;;;14.73;8.63;;;;;;;5.21;100.00;100903.41;5072462;28;20097;-53
2023/04/15 05:22:07;;;;;;;14.32;9.02;;;;;;;5.20;100.00;100908.72;5070237;28;20106;-50
2023/04/15 05:24:36;;;;;;;16.10;9.13;;;;;;;5.20;100.00;100906.09;5070325;28;20064;-53
2023/04/15 05:27:04;;;;;;;13.27;8.38;;;;;;;5.20;100.00;100909.53;5069693;28;20051;-53
2023/04/15 05:29:33;;;;;;;15.93;9.30;;;;;;;5.22;100.00;100912.94;5070458;28;20048;-53
2023/04/15 05:32:01;;;;;;;15.52;9.63;;;;;;;5.21;100.00;100911.25;5070215;28;20410;-51
2023/04/15 05:34:29;;;;;;;15.25;9.63;;;;;;;5.28;100.00;100916.22;5068410;28;20475;-53
2023/04/15 05:36:57;;;;;;;15.38;9.13;;;;;;;5.34;100.00;100922.00;5066496;28;20056;-53
2023/04/15 05:39:26;;;;;;;17.20;9.68;;;;;;;5.32;100.00;100923.84;5067653;28;20072;-52
2023/04/15 05:41:54;;;;;;;15.05;9.50;;;;;;;5.33;100.00;100922.06;5069600;28;20041;-53
2023/04/15 05:44:22;;;;;;;14.57;9.00;;;;;;;5.37;100.00;100936.69;5069426;28;20472;-54
2023/04/15 05:46:52;;;;;;;16.70;10.00;;;;;;;5.39;100.00;100933.09;5068302;28;20057;-53
2023/04/15 05:49:20;;;;;;;14.90;9.15;;;;;;;5.48;100.00;100939.69;5067527;28;20052;-54
2023/04/15 05:51:48;;;;;;;15.20;9.98;;;;;;;5.54;100.00;100939.44;5065104;28;20127;-54
2023/04/15 05:54:17;;;;;;;17.23;9.85;;;;;;;5.58;100.00;100934.94;5070903;28;20407;-54
2023/04/15 05:56:47;;;;;;;15.65;9.93;;;;;;;5.66;100.00;100935.44;5066416;28;20040;-55
2023/04/15 05:59:15;;;;;;;16.77;9.65;;;;;;;5.71;100.00;100943.06;5068134;28;20068;-53
2023/04/15 06:01:43;;;;;;;18.85;10.18;;;;;;;5.78;100.00;100944.53;5071251;28;20040;-54
2023/04/15 06:04:14;;;;;;;17.83;10.88;;;;;;;5.87;100.00;100951.94;5071617;28;20099;-53
2023/04/15 06:06:42;;;;;;;17.67;10.02;;;;;;;6.00;100.00;100952.28;5066269;28;20120;-55
2023/04/15 06:09:10;;;;;;;17.40;10.52;;;;;;;6.12;100.00;100958.69;5067405;28;20444;-55
2023/04/15 06:11:40;;;;;;;15.25;9.90;;;;;;;6.17;100.00;100958.53;5069574;28;20124;-53
2023/04/15 06:14:08;;;;;;;16.13;10.02;;;;;;;6.31;100.00;100965.72;5070196;28;20128;-59
2023/04/15 06:16:36;;;;;;;14.88;9.95;;;;;;;6.36;100.00;100974.22;5071049;28;20086;-59
2023/04/15 06:19:04;;;;;;;18.15;10.07;;;;;;;6.41;100.00;100972.25;5070293;28;20115;-59
2023/04/15 06:21:34;;;;;;;15.63;9.73;;;;;;;6.47;100.00;100984.19;5069126;28;20110;-59
2023/04/15 06:24:02;;;;;;;16.08;10.50;;;;;;;6.52;100.00;100984.81;5069816;28;20138;-59
2023/04/15 06:26:31;;;;;;;15.10;9.82;;;;;;;6.56;100.00;100986.38;5067445;28;20044;-59
2023/04/15 06:28:59;;;;;;;13.63;9.20;;;;;;;6.58;100.00;100993.19;5069474;28;20044;-59
2023/04/15 06:31:27;;;;;;;15.23;10.23;;;;;;;6.64;100.00;101006.91;5071203;28;20079;-59
2023/04/15 06:33:56;;;;;;;17.80;10.90;;;;;;;6.67;100.00;100994.56;5070458;28;20064;-59
2023/04/15 06:36:24;;;;;;;16.02;9.25;;;;;;;6.72;100.00;100999.56;5070321;28;20503;-59
2023/04/15 06:38:53;;;;;;;14.65;9.00;;;;;;;6.75;100.00;101012.50;5070081;28;20088;-62
2023/04/15 06:41:21;;;;;;;15.07;9.07;;;;;;;6.77;100.00;101015.88;5069809;28;20131;-60
2023/04/15 06:43:50;;;;;;;13.18;8.10;;;;;;;6.76;100.00;101014.19;5071074;28;20082;-59
2023/04/15 06:46:18;;;;;;;14.90;8.98;;;;;;;6.80;100.00;101026.19;5071640;28;20079;-59
2023/04/15 06:48:47;;;;;;;13.05;8.25;;;;;;;6.86;100.00;101025.06;5071288;28;20398;-59
2023/04/15 06:51:15;;;;;;;11.88;7.60;;;;;;;6.84;100.00;101030.34;5071697;28;20040;-60
2023/04/15 06:53:43;;;;;;;14.35;8.68;;;;;;;6.91;100.00;101034.41;5068851;28;20060;-59
2023/04/15 06:56:12;;;;;;;14.73;9.27;;;;;;;6.92;100.00;101033.47;5070344;28;20049;-60
2023/04/15 06:58:40;;;;;;;14.98;8.75;;;;;;;6.99;100.00;101043.66;5070164;28;20045;-60
2023/04/15 07:01:08;;;;;;;14.02;8.85;;;;;;;7.03;100.00;101038.19;5070025;28;20041;-60
2023/04/15 07:03:37;;;;;;;16.50;10.00;;;;;;;7.07;100.00;101037.13;5074044;28;20136;-60
2023/04/15 07:06:05;;;;;;;16.05;9.52;;;;;;;7.10;100.00;101039.63;5075813;28;20040;-60
2023/04/15 07:08:33;;;;;;;17.67;10.20;;;;;;;7.14;100.00;101045.53;5075658;28;20399;-60
2023/04/15 07:11:02;;;;;;;17.08;9.65;;;;;;;7.18;100.00;101046.22;5073156;28;20041;-60
2023/04/15 07:13:32;;;;;;;15.02;9.18;;;;;;;7.33;100.00;101052.50;5075981;28;20047;-60
2023/04/15 07:16:00;;;;;;;15.63;9.15;;;;;;;7.31;100.00;101056.94;5075870;28;20049;-60
2023/04/15 07:18:28;;;;;;;14.00;8.75;;;;;;;7.40;100.00;101057.38;5073494;28;20078;-60
2023/04/15 07:20:57;;;;;;;12.85;8.43;;;;;;;7.36;100.00;101055.84;5076385;28;20041;-60
2023/04/15 07:23:25;;;;;;;15.23;8.63;;;;;;;7.47;100.00;101067.53;5076161;28;20090;-60
2023/04/15 07:25:53;;;;;;;14.75;8.77;;;;;;;7.48;100.00;101071.84;5075973;28;20072;-54
2023/04/15 07:28:21;;;;;;;13.10;7.32;;;;;;;7.52;100.00;101070.78;5076108;28;20098;-55
2023/04/15 07:30:55;;;;;;;16.42;7.70;;;;;;;7.57;100.00;101076.66;5076010;28;20564;-60
2023/04/15 07:33:24;;;;;;;12.43;7.32;;;;;;;7.71;100.00;101082.03;5074345;28;20079;-60
2023/04/15 07:35:52;;;;;;;12.32;7.22;;;;;;;7.75;100.00;101085.34;5075138;28;20083;-59
2023/04/15 07:38:20;;;;;;;13.32;7.63;;;;;;;7.76;100.00;101089.69;5073015;28;20075;-55
2023/04/15 07:40:48;;;;;;;15.98;7.45;;;;;;;7.83;100.00;101090.22;5073025;28;20041;-57
2023/04/15 07:43:17;;;;;;;11.23;7.03;;;;;;;7.92;100.00;101093.22;5072484;28;20036;-60
2023/04/15 07:45:45;;;;;;;12.18;6.18;;;;;;;8.04;100.00;101096.16;5074029;28;20037;-55
2023/04/15 07:48:15;;;;;;;10.63;6.63;;;;;;;8.12;100.00;101092.19;5074396;28;20501;-60
2023/04/15 07:50:46;;;;;;;11.95;6.70;;;;;;;8.31;100.00;101091.28;5070709;28;20543;-55
2023/04/15 07:53:15;;;;;;;11.45;6.68;;;;;;;8.42;100.00;101098.56;5076009;28;20044;-60
2023/04/15 07:55:43;;;;;;;10.52;6.43;;;;;;;8.60;100.00;101108.16;5075457;28;20040;-60
2023/04/15 07:58:11;;;;;;;12.02;6.70;;;;;;;8.64;100.00;101106.19;5073472;28;20044;-55
2023/04/15 08:00:39;;;;;;;12.02;6.95;;;;;;;8.79;100.00;101112.41;5073978;28;20556;-55
2023/04/15 08:03:07;;;;;;;10.52;7.15;;;;;;;8.91;100.00;101114.34;5066960;28;20029;-60
2023/04/15 08:05:37;;;;;;;10.63;5.57;;;;;;;9.02;100.00;101120.81;5069681;28;20090;-60
2023/04/15 08:08:05;;;;;;;10.25;6.05;;;;;;;9.10;100.00;101113.38;5072786;28;20530;-60
2023/04/15 08:10:34;;;;;;;12.07;5.53;;;;;;;9.18;100.00;101120.84;5073062;28;20048;-60
2023/04/15 08:13:02;;;;;;;9.32;5.60;;;;;;;9.26;100.00;101121.25;5073220;28;20052;-60
2023/04/15 08:15:31;;;;;;;7.95;5.28;;;;;;;9.32;100.00;101120.06;5071578;28;20575;-55
2023/04/15 08:18:00;;;;;;;9.23;5.13;;;;;;;9.49;100.00;101122.59;5072327;28;20052;-60
2023/04/15 08:20:28;;;;;;;10.25;5.32;;;;;;;9.51;100.00;101125.97;5075324;28;20123;-55
2023/04/15 08:22:58;;;;;;;10.27;5.35;;;;;;;9.56;100.00;101125.75;5075216;28;20127;-55
2023/04/15 08:25:26;;;;;;;8.05;4.65;;;;;;;9.66;100.00;101126.88;5074271;28;20075;-60
2023/04/15 08:27:56;;;;;;;9.25;4.28;;;;;;;9.72;100.00;101133.56;5072539;28;20044;-60
2023/04/15 08:30:24;;;;;;;6.85;4.00;;;;;;;9.70;100.00;101131.03;5072405;28;20441;-54
2023/04/15 08:32:52;;;;;;;6.90;3.78;;;;;;;9.80;100.00;101134.84;5074759;28;20068;-61
2023/04/15 08:35:20;;;;;;;7.43;3.90;;;;;;;9.77;100.00;101127.13;5075161;28;20041;-60
2023/04/15 08:37:49;;;;;;;7.07;3.85;;;;;;;9.86;100.00;101133.63;5074332;28;20140;-60
2023/04/15 08:40:20;;;;;;;7.20;3.58;;;;;;;9.89;100.00;101140.50;5073029;28;20519;-60
2023/04/15 08:42:52;;;;;;;8.50;3.90;;;;;;;9.94;100.00;101146.34;5072644;28;20028;-60
2023/04/15 08:45:21;;;;;;;7.25;3.50;;;;;;;9.98;100.00;101147.84;5053660;28;20060;-60
2023/04/15 08:47:56;;;;;;;7.30;3.70;;;;;;;10.06;100.00;101147.41;5053815;28;20053;-60
2023/04/15 08:50:26;;;;;;;7.65;3.80;;;;;;;10.08;100.00;101156.06;5054075;28;20045;-60
2023/04/15 08:52:55;;;;;;;6.82;3.63;;;;;;;10.12;100.00;101150.50;5065057;28;20052;-60
2023/04/15 08:55:26;;;;;;;6.45;3.53;;;;;;;10.28;100.00;101155.72;5073428;28;20044;-60
2023/04/15 08:57:54;;;;;;;8.30;3.97;;;;;;;10.36;100.00;101151.81;5073041;28;20399;-60
2023/04/15 09:00:23;;;;;;;8.52;3.75;;;;;;;10.50;100.00;101159.75;5073521;28;20479;-60
2023/04/15 09:02:52;;;;;;;6.97;3.75;;;;;;;10.51;100.00;101166.69;5073377;28;20090;-60
2023/04/15 09:05:21;;;;;;;7.85;3.88;;;;;;;10.50;100.00;101167.63;5074085;28;20044;-60
2023/04/15 09:07:53;;;;;;;7.25;3.30;;;;;;;10.56;100.00;101167.25;5073318;28;20040;-60
2023/04/15 09:10:21;;;;;;;6.65;3.67;;;;;;;10.63;100.00;101173.84;5071925;28;20110;-60
2023/04/15 09:12:50;;;;;;;6.82;3.47;;;;;;;10.76;100.00;101176.59;5072937;28;20479;-60
2023/04/15 09:15:19;;;;;;;8.05;3.88;;;;;;;10.96;100.00;101177.13;5073109;28;20044;-61
2023/04/15 09:17:47;;;;;;;6.97;3.15;;;;;;;11.01;100.00;101179.50;5072717;28;20284;-60
2023/04/15 09:20:17;;;;;;;7.22;3.50;;;;;;;11.20;100.00;101181.84;5073116;28;20480;-60
2023/04/15 09:22:48;;;;;;;7.20;3.70;;;;;;;11.36;100.00;101182.56;5072486;28;20036;-60
2023/04/15 09:25:26;;;;;;;8.02;4.10;;;;;;;11.56;100.00;101180.44;5072483;28;20048;-60
2023/04/15 09:27:57;;;;;;;7.00;3.72;;;;;;;11.79;100.00;101197.41;5072217;28;20045;-61
2023/04/15 09:30:27;;;;;;;7.70;4.18;;;;;;;11.98;100.00;101197.97;5072834;28;20426;-60
2023/04/15 09:32:57;;;;;;;8.77;4.60;;;;;;;12.12;100.00;101198.81;5068965;28;20364;-61
2023/04/15 09:35:27;;;;;;;8.20;4.57;;;;;;;12.10;100.00;101196.28;5071578;28;20489;-56
2023/04/15 09:38:03;;;;;;;7.90;4.47;;;;;;;12.27;100.00;101195.19;5069286;28;20111;-61
2023/04/15 09:40:35;;;;;;;9.82;4.65;;;;;;;12.40;100.00;101194.34;5071021;28;20530;-61
2023/04/15 09:43:06;;;;;;;7.80;3.85;;;;;;;12.52;100.00;101199.63;5069086;28;21616;-55
2023/04/15 09:45:36;;;;;;;7.03;3.67;;;;;;;12.68;100.00;101210.00;5070961;28;20053;-56
2023/04/15 09:48:17;;;;;;;9.53;4.83;;;;;;;12.77;100.00;101203.22;5070869;28;20037;-61
2023/04/15 09:50:47;;;;;;;11.65;4.70;;;;;;;12.92;100.00;101205.78;5072002;28;20465;-56
2023/04/15 09:53:18;;;;;;;7.13;4.05;;;;;;;13.10;100.00;101209.78;5070952;28;20068;-56
2023/04/15 09:55:50;;;;;;;10.02;4.80;;;;;;;13.18;100.00;101219.78;5068393;28;20045;-56
2023/04/15 09:58:20;;;;;;;7.65;4.38;;;;;;;13.12;100.00;101217.59;5070153;28;20052;-61
2023/04/15 10:00:49;;;;;;;7.45;3.85;;;;;;;13.42;100.00;101230.47;5069425;28;20051;-56
2023/04/15 10:03:21;;;;;;;8.25;4.20;;;;;;;13.55;100.00;101221.66;5071267;28;20531;-61
2023/04/15 10:05:51;;;;;;;7.78;3.80;;;;;;;13.57;100.00;101236.44;5071889;28;20434;-56
2023/04/15 10:08:22;;;;;;;7.43;3.83;;;;;;;13.65;100.00;101220.88;5071563;28;20059;-56
2023/04/15 10:10:51;;;;;;;6.65;3.80;;;;;;;13.85;100.00;101226.50;5067159;28;20063;-60
2023/04/15 10:13:23;;;;;;;7.47;4.18;;;;;;;13.93;100.00;101223.31;5067306;28;20040;-58
2023/04/15 10:15:57;;;;;;;7.38;4.13;;;;;;;13.97;100.00;101222.97;5069080;28;20064;-56
2023/04/15 10:18:28;;;;;;;7.35;3.70;;;;;;;13.97;100.00;101222.97;5068453;28;20502;-56
2023/04/15 10:20:57;;;;;;;8.18;4.20;;;;;;;13.83;100.00;101228.44;5070906;28;20438;-57
2023/04/15 10:23:26;;;;;;;7.38;3.78;;;;;;;13.86;100.00;101233.50;5068278;28;20460;-56
2023/04/15 10:25:54;;;;;;;6.90;3.58;;;;;;;13.97;100.00;101238.00;5068780;28;20061;-56
2023/04/15 10:28:25;;;;;;;8.13;3.70;;;;;;;13.79;100.00;101248.97;5068200;28;20453;-60
2023/04/15 10:30:53;;;;;;;7.45;3.03;;;;;;;13.63;100.00;101251.03;5069568;28;20499;-61
2023/04/15 10:33:23;;;;;;;7.75;3.50;;;;;;;13.53;100.00;101240.28;5068038;28;20028;-55
2023/04/15 10:35:54;;;;;;;5.93;3.10;;;;;;;13.61;100.00;101250.31;5067735;28;20368;-55
2023/04/15 10:38:35;;;;;;;6.95;3.50;;;;;;;13.66;100.00;101250.78;5069793;28;20546;-55
2023/04/15 10:41:14;;;;;;;5.75;3.15;;;;;;;14.00;100.00;101245.69;5068667;28;20040;-56
2023/04/15 10:43:49;;;;;;;7.03;3.33;;;;;;;14.28;100.00;101247.16;5067542;28;20032;-60
2023/04/15 10:46:19;;;;;;;6.45;3.20;;;;;;;14.48;100.00;101250.97;5070976;28;20044;-61
2023/04/15 10:48:50;;;;;;;6.25;3.00;;;;;;;14.07;100.00;101277.84;5067841;28;20463;-55
2023/04/15 10:51:28;;;;;;;6.88;3.22;;;;;;;13.86;100.00;101254.66;5067166;28;20044;-55
2023/04/15 10:53:59;;;;;;;6.10;2.95;;;;;;;14.13;100.00;101259.72;5064645;28;20140;-54
2023/04/15 10:56:30;;;;;;;7.47;3.55;;;;;;;14.02;100.00;101260.50;5066690;28;20044;-55
2023/04/15 10:59:01;;;;;;;6.30;3.05;;;;;;;14.20;100.00;101255.66;5066256;28;20499;-56
2023/04/15 11:01:52;;;;;;;7.03;3.50;;;;;;;14.22;100.00;101260.84;5067796;28;20075;-55
2023/04/15 11:04:51;;;;;;;7.82;3.25;;;;;;;14.42;100.00;101256.69;5069814;28;20087;-56
2023/04/15 11:07:39;;;;;;;5.68;2.78;;;;;;;14.33;95.71;101257.41;5070543;28;20064;-56
2023/04/15 11:10:51;;;;;;;5.90;2.83;;;;;;;14.44;96.07;101248.66;5065497;28;20052;-55
2023/04/15 11:13:27;;;;;;;5.07;2.80;;;;;;;14.71;93.05;101256.34;5065701;28;20063;-57
2023/04/15 11:16:01;;;;;;;8.13;2.70;;;;;;;14.69;91.40;101253.81;5068449;28;20037;-56
2023/04/15 11:18:31;;;;;;;5.70;2.80;;;;;;;14.84;90.26;101254.44;5070796;28;20453;-56
2023/04/15 11:21:02;;;;;;;4.72;2.25;;;;;;;14.95;91.05;101252.78;5072177;28;20052;-56
2023/04/15 11:23:35;;;;;;;4.78;2.50;;;;;;;14.89;92.63;101264.69;5071346;28;20543;-56
2023/04/15 11:26:08;;;;;;;6.18;3.13;;;;;;;14.68;93.91;101261.88;5068490;28;20059;-56
2023/04/15 11:28:37;;;;;;;8.20;4.57;;;;;;;14.66;95.03;101272.56;5066275;28;20449;-57